sensor_id;sensor_type;location;lat;lon;timestamp;pressure;altitude;pressure_sealevel;temperature;humidity
8501;BME280;4288;48.484;10.024;2023-02-05T00:00:39;97493.56;;;-1.56;nan
8501;BME280;4288;48.484;10.024;2023-02-05T00:03:06;97482.31;;;-1.52;nan
8501;BME280;4288;48.484;10.024;2023-02-05T00:05:33;97480.16;;;-1.60;nan
8501;BME280;4288;48.484;10.024;2023-02-05T00:08:00;97482.78;;;-1.60;nan
8501;BME280;4288;48.484;10.024;2023-02-05T00:10:28;97483.03;;;-1.66;nan
8501;BME280;4288;48.484;10.024;2023-02-05T00:12:56;97481.63;;;-1.79;nan
8501;BME280;4288;48.484;10.024;2023-02-05T00:15:23;97482.41;;;-1.84;nan
8501;BME280;4288;48.484;10.024;2023-02-05T00:17:50;97480.31;;;-1.82;nan
8501;BME280;4288;48.484;10.024;2023-02-05T00:20:18;97480.00;;;-1.90;nan
8501;BME280;4288;48.484;10.024;2023-02-05T00:22:45;97482.31;;;-1.94;nan
8501;BME280;4288;48.484;10.024;2023-02-05T00:25:12;97481.63;;;-2.16;nan
8501;BME280;4288;48.484;10.024;2023-02-05T00:27:39;97478.72;;;-2.19;nan
8501;BME280;4288;48.484;10.024;2023-02-05T00:30:09;97482.16;;;-2.14;nan
8501;BME280;4288;48.484;10.024;2023-02-05T00:32:37;97479.56;;;-2.14;nan
8501;BME280;4288;48.484;10.024;2023-02-05T00:35:04;97480.13;;;-2.07;nan
8501;BME280;4288;48.484;10.024;2023-02-05T00:37:31;97474.34;;;-2.09;nan
8501;BME280;4288;48.484;10.024;2023-02-05T00:39:59;97481.38;;;-2.14;nan
8501;BME280;4288;48.484;10.024;2023-02-05T00:42:26;97475.91;;;-2.13;nan
8501;BME280;4288;48.484;10.024;2023-02-05T00:44:53;97477.72;;;-2.13;nan
8501;BME280;4288;48.484;10.024;2023-02-05T00:47:21;97468.53;;;-2.16;nan
8501;BME280;4288;48.484;10.024;2023-02-05T00:49:48;97459.84;;;-2.26;nan
8501;BME280;4288;48.484;10.024;2023-02-05T00:52:15;97466.09;;;-2.27;nan
8501;BME280;4288;48.484;10.024;2023-02-05T00:54:43;97466.63;;;-2.25;nan
8501;BME280;4288;48.484;10.024;2023-02-05T00:57:10;97468.44;;;-2.26;nan
8501;BME280;4288;48.484;10.024;2023-02-05T00:59:37;97466.00;;;-2.37;nan
8501;BME280;4288;48.484;10.024;2023-02-05T01:02:04;97471.66;;;-2.50;nan
8501;BME280;4288;48.484;10.024;2023-02-05T01:04:32;97473.81;;;-2.42;nan
8501;BME280;4288;48.484;10.024;2023-02-05T01:06:59;97474.56;;;-2.47;nan
8501;BME280;4288;48.484;10.024;2023-02-05T01:09:26;97477.34;;;-2.58;nan
8501;BME280;4288;48.484;10.024;2023-02-05T01:11:54;97480.94;;;-2.64;nan
8501;BME280;4288;48.484;10.024;2023-02-05T01:14:21;97475.22;;;-2.61;nan
8501;BME280;4288;48.484;10.024;2023-02-05T01:16:48;97475.97;;;-2.66;nan
8501;BME280;4288;48.484;10.024;2023-02-05T01:19:15;97477.53;;;-2.65;nan
8501;BME280;4288;48.484;10.024;2023-02-05T01:21:43;97471.03;;;-2.62;nan
8501;BME280;4288;48.484;10.024;2023-02-05T01:24:10;97467.00;;;-2.75;nan
8501;BME280;4288;48.484;10.024;2023-02-05T01:26:37;97467.84;;;-2.64;nan
8501;BME280;4288;48.484;10.024;2023-02-05T01:29:04;97459.72;;;-2.68;nan
8501;BME280;4288;48.484;10.024;2023-02-05T01:31:32;97457.66;;;-2.66;nan
8501;BME280;4288;48.484;10.024;2023-02-05T01:33:59;97460.53;;;-2.67;nan
8501;BME280;4288;48.484;10.024;2023-02-05T01:36:26;97461.59;;;-2.63;nan
8501;BME280;4288;48.484;10.024;2023-02-05T01:38:54;97462.81;;;-2.71;nan
8501;BME280;4288;48.484;10.024;2023-02-05T01:41:21;97468.56;;;-2.74;nan
8501;BME280;4288;48.484;10.024;2023-02-05T01:44:10;97461.75;;;-2.75;nan
8501;BME280;4288;48.484;10.024;2023-02-05T01:46:39;97463.47;;;-2.86;nan
8501;BME280;4288;48.484;10.024;2023-02-05T01:49:09;97455.59;;;-2.91;nan
8501;BME280;4288;48.484;10.024;2023-02-05T01:51:39;97450.94;;;-2.84;nan
8501;BME280;4288;48.484;10.024;2023-02-05T01:54:08;97451.66;;;-2.88;nan
8501;BME280;4288;48.484;10.024;2023-02-05T01:56:38;97439.81;;;-2.96;nan
8501;BME280;4288;48.484;10.024;2023-02-05T01:59:10;97441.06;;;-3.03;nan
8501;BME280;4288;48.484;10.024;2023-02-05T02:01:39;97443.50;;;-2.97;nan
8501;BME280;4288;48.484;10.024;2023-02-05T02:04:06;97437.16;;;-3.01;nan
8501;BME280;4288;48.484;10.024;2023-02-05T02:06:36;97431.09;;;-3.06;nan
8501;BME280;4288;48.484;10.024;2023-02-05T02:09:06;97426.31;;;-3.14;nan
8501;BME280;4288;48.484;10.024;2023-02-05T02:11:37;97426.84;;;-3.12;nan
8501;BME280;4288;48.484;10.024;2023-02-05T02:14:08;97419.56;;;-3.10;nan
8501;BME280;4288;48.484;10.024;2023-02-05T02:16:37;97418.75;;;-3.11;nan
8501;BME280;4288;48.484;10.024;2023-02-05T02:19:15;97418.22;;;-3.13;nan
8501;BME280;4288;48.484;10.024;2023-02-05T02:22:24;97414.81;;;-3.13;nan
8501;BME280;4288;48.484;10.024;2023-02-05T02:28:26;97405.28;;;-3.24;nan
8501;BME280;4288;48.484;10.024;2023-02-05T02:31:00;97406.09;;;-3.24;nan
8501;BME280;4288;48.484;10.024;2023-02-05T02:33:35;97399.22;;;-3.30;nan
8501;BME280;4288;48.484;10.024;2023-02-05T02:36:08;97396.81;;;-3.31;nan
8501;BME280;4288;48.484;10.024;2023-02-05T02:38:41;97396.38;;;-3.23;nan
8501;BME280;4288;48.484;10.024;2023-02-05T02:41:15;97390.59;;;-3.30;nan
8501;BME280;4288;48.484;10.024;2023-02-05T02:43:50;97392.69;;;-3.27;nan
8501;BME280;4288;48.484;10.024;2023-02-05T02:46:23;97392.34;;;-3.36;nan
8501;BME280;4288;48.484;10.024;2023-02-05T02:48:55;97391.25;;;-3.40;nan
8501;BME280;4288;48.484;10.024;2023-02-05T02:51:24;97387.41;;;-3.32;nan
8501;BME280;4288;48.484;10.024;2023-02-05T02:53:57;97383.69;;;-3.41;nan
8501;BME280;4288;48.484;10.024;2023-02-05T02:56:27;97377.78;;;-3.53;nan
8501;BME280;4288;48.484;10.024;2023-02-05T02:58:59;97377.72;;;-3.58;nan
8501;BME280;4288;48.484;10.024;2023-02-05T03:01:30;97383.44;;;-3.62;nan
8501;BME280;4288;48.484;10.024;2023-02-05T03:04:03;97382.81;;;-3.69;nan
8501;BME280;4288;48.484;10.024;2023-02-05T03:06:33;97375.06;;;-3.64;nan
8501;BME280;4288;48.484;10.024;2023-02-05T03:09:05;97369.03;;;-3.64;nan
8501;BME280;4288;48.484;10.024;2023-02-05T03:11:34;97375.06;;;-3.64;nan
8501;BME280;4288;48.484;10.024;2023-02-05T03:14:03;97373.53;;;-3.81;nan
8501;BME280;4288;48.484;10.024;2023-02-05T03:16:30;97382.34;;;-3.87;nan
8501;BME280;4288;48.484;10.024;2023-02-05T03:18:57;97375.03;;;-4.07;nan
8501;BME280;4288;48.484;10.024;2023-02-05T03:21:31;97367.03;;;-4.00;nan
8501;BME280;4288;48.484;10.024;2023-02-05T03:23:59;97367.88;;;-3.95;nan
8501;BME280;4288;48.484;10.024;2023-02-05T03:26:30;97372.13;;;-3.89;nan
8501;BME280;4288;48.484;10.024;2023-02-05T03:29:00;97364.97;;;-3.77;nan
8501;BME280;4288;48.484;10.024;2023-02-05T03:31:37;97365.66;;;-3.86;nan
8501;BME280;4288;48.484;10.024;2023-02-05T03:37:09;97364.78;;;-3.92;nan
8501;BME280;4288;48.484;10.024;2023-02-05T03:39:50;97365.63;;;-4.08;nan
8501;BME280;4288;48.484;10.024;2023-02-05T03:42:32;97369.34;;;-4.04;nan
8501;BME280;4288;48.484;10.024;2023-02-05T03:45:19;97365.75;;;-3.98;nan
8501;BME280;4288;48.484;10.024;2023-02-05T03:48:11;97364.97;;;-3.98;nan
8501;BME280;4288;48.484;10.024;2023-02-05T03:50:45;97365.75;;;-3.98;nan
8501;BME280;4288;48.484;10.024;2023-02-05T03:53:32;97358.59;;;-3.86;nan
8501;BME280;4288;48.484;10.024;2023-02-05T03:56:05;97366.28;;;-3.96;nan
8501;BME280;4288;48.484;10.024;2023-02-05T03:58:38;97365.13;;;-4.05;nan
8501;BME280;4288;48.484;10.024;2023-02-05T04:01:09;97359.97;;;-4.00;nan
8501;BME280;4288;48.484;10.024;2023-02-05T04:03:38;97362.97;;;-3.91;nan
8501;BME280;4288;48.484;10.024;2023-02-05T04:06:06;97359.34;;;-3.90;nan
8501;BME280;4288;48.484;10.024;2023-02-05T04:08:33;97360.28;;;-3.96;nan
8501;BME280;4288;48.484;10.024;2023-02-05T04:11:01;97365.19;;;-4.00;nan
8501;BME280;4288;48.484;10.024;2023-02-05T04:13:28;97359.50;;;-3.97;nan
8501;BME280;4288;48.484;10.024;2023-02-05T04:15:55;97359.91;;;-4.05;nan
8501;BME280;4288;48.484;10.024;2023-02-05T04:18:22;97355.28;;;-3.98;nan
8501;BME280;4288;48.484;10.024;2023-02-05T04:20:50;97349.97;;;-4.08;nan
8501;BME280;4288;48.484;10.024;2023-02-05T04:23:17;97354.56;;;-3.93;nan
8501;BME280;4288;48.484;10.024;2023-02-05T04:25:45;97352.56;;;-4.08;nan
8501;BME280;4288;48.484;10.024;2023-02-05T04:28:12;97349.59;;;-4.16;nan
8501;BME280;4288;48.484;10.024;2023-02-05T04:30:39;97353.00;;;-4.16;nan
8501;BME280;4288;48.484;10.024;2023-02-05T04:33:06;97353.09;;;-4.27;nan
8501;BME280;4288;48.484;10.024;2023-02-05T04:35:34;97334.28;;;-4.29;nan
8501;BME280;4288;48.484;10.024;2023-02-05T04:38:02;97333.72;;;-4.31;nan
8501;BME280;4288;48.484;10.024;2023-02-05T04:40:29;97328.50;;;-4.31;nan
8501;BME280;4288;48.484;10.024;2023-02-05T04:42:57;97323.34;;;-4.26;nan
8501;BME280;4288;48.484;10.024;2023-02-05T04:45:24;97319.63;;;-4.30;nan
8501;BME280;4288;48.484;10.024;2023-02-05T04:47:55;97325.59;;;-4.35;nan
8501;BME280;4288;48.484;10.024;2023-02-05T04:50:22;97330.56;;;-4.33;nan
8501;BME280;4288;48.484;10.024;2023-02-05T04:52:49;97340.16;;;-4.17;nan
8501;BME280;4288;48.484;10.024;2023-02-05T04:55:18;97333.19;;;-4.33;nan
8501;BME280;4288;48.484;10.024;2023-02-05T04:57:45;97335.09;;;-4.45;nan
8501;BME280;4288;48.484;10.024;2023-02-05T05:00:13;97341.41;;;-4.41;nan
8501;BME280;4288;48.484;10.024;2023-02-05T05:02:40;97328.22;;;-4.35;nan
8501;BME280;4288;48.484;10.024;2023-02-05T05:05:08;97327.72;;;-4.32;nan
8501;BME280;4288;48.484;10.024;2023-02-05T05:07:36;97329.72;;;-4.39;nan
8501;BME280;4288;48.484;10.024;2023-02-05T05:10:05;97343.78;;;-4.40;nan
8501;BME280;4288;48.484;10.024;2023-02-05T05:12:34;97347.09;;;-4.28;nan
8501;BME280;4288;48.484;10.024;2023-02-05T05:15:02;97350.34;;;-4.37;nan
8501;BME280;4288;48.484;10.024;2023-02-05T05:17:29;97345.44;;;-4.34;nan
8501;BME280;4288;48.484;10.024;2023-02-05T05:19:57;97341.25;;;-4.35;nan
8501;BME280;4288;48.484;10.024;2023-02-05T05:22:24;97344.56;;;-4.39;nan
8501;BME280;4288;48.484;10.024;2023-02-05T05:24:51;97350.75;;;-4.45;nan
8501;BME280;4288;48.484;10.024;2023-02-05T05:27:18;97354.75;;;-4.38;nan
8501;BME280;4288;48.484;10.024;2023-02-05T05:29:49;97350.81;;;-4.40;nan
8501;BME280;4288;48.484;10.024;2023-02-05T05:32:16;97346.63;;;-4.41;nan
8501;BME280;4288;48.484;10.024;2023-02-05T05:34:43;97343.22;;;-4.42;nan
8501;BME280;4288;48.484;10.024;2023-02-05T05:37:10;97347.53;;;-4.31;nan
8501;BME280;4288;48.484;10.024;2023-02-05T05:39:37;97347.00;;;-4.33;nan
8501;BME280;4288;48.484;10.024;2023-02-05T05:42:21;97337.22;;;-4.42;nan
8501;BME280;4288;48.484;10.024;2023-02-05T05:45:08;97349.59;;;-4.33;nan
8501;BME280;4288;48.484;10.024;2023-02-05T05:47:35;97346.53;;;-4.30;nan
8501;BME280;4288;48.484;10.024;2023-02-05T05:50:03;97350.41;;;-4.32;nan
8501;BME280;4288;48.484;10.024;2023-02-05T05:52:30;97363.56;;;-4.44;nan
8501;BME280;4288;48.484;10.024;2023-02-05T05:54:57;97355.97;;;-4.45;nan
8501;BME280;4288;48.484;10.024;2023-02-05T05:57:24;97358.31;;;-4.44;nan
8501;BME280;4288;48.484;10.024;2023-02-05T05:59:51;97364.44;;;-4.55;nan
8501;BME280;4288;48.484;10.024;2023-02-05T06:02:20;97361.44;;;-4.47;nan
8501;BME280;4288;48.484;10.024;2023-02-05T06:04:47;97374.06;;;-4.39;nan
8501;BME280;4288;48.484;10.024;2023-02-05T06:07:14;97365.34;;;-4.28;nan
8501;BME280;4288;48.484;10.024;2023-02-05T06:09:41;97364.38;;;-4.22;nan
8501;BME280;4288;48.484;10.024;2023-02-05T06:12:08;97358.44;;;-4.17;nan
8501;BME280;4288;48.484;10.024;2023-02-05T06:14:35;97360.88;;;-4.11;nan
8501;BME280;4288;48.484;10.024;2023-02-05T06:17:02;97361.81;;;-4.00;nan
8501;BME280;4288;48.484;10.024;2023-02-05T06:19:31;97357.19;;;-3.93;nan
8501;BME280;4288;48.484;10.024;2023-02-05T06:21:58;97358.88;;;-3.82;nan
8501;BME280;4288;48.484;10.024;2023-02-05T06:24:25;97353.72;;;-3.77;nan
8501;BME280;4288;48.484;10.024;2023-02-05T06:26:52;97353.97;;;-3.79;nan
8501;BME280;4288;48.484;10.024;2023-02-05T06:29:20;97355.84;;;-3.74;nan
8501;BME280;4288;48.484;10.024;2023-02-05T06:31:47;97355.91;;;-3.69;nan
8501;BME280;4288;48.484;10.024;2023-02-05T06:34:14;97344.97;;;-3.66;nan
8501;BME280;4288;48.484;10.024;2023-02-05T06:36:42;97350.94;;;-3.71;nan
8501;BME280;4288;48.484;10.024;2023-02-05T06:39:09;97349.66;;;-3.68;nan
8501;BME280;4288;48.484;10.024;2023-02-05T06:41:36;97365.03;;;-3.72;nan
8501;BME280;4288;48.484;10.024;2023-02-05T06:44:04;97364.44;;;-3.79;nan
8501;BME280;4288;48.484;10.024;2023-02-05T06:46:31;97371.03;;;-3.71;nan
8501;BME280;4288;48.484;10.024;2023-02-05T06:48:58;97353.59;;;-3.66;nan
8501;BME280;4288;48.484;10.024;2023-02-05T06:51:25;97352.00;;;-3.67;nan
8501;BME280;4288;48.484;10.024;2023-02-05T06:53:54;97359.38;;;-3.64;nan
8501;BME280;4288;48.484;10.024;2023-02-05T06:56:22;97344.84;;;-3.54;nan
8501;BME280;4288;48.484;10.024;2023-02-05T06:58:49;97345.88;;;-3.55;nan
8501;BME280;4288;48.484;10.024;2023-02-05T07:01:17;97343.06;;;-3.49;nan
8501;BME280;4288;48.484;10.024;2023-02-05T07:03:44;97331.94;;;-3.39;nan
8501;BME280;4288;48.484;10.024;2023-02-05T07:06:13;97339.81;;;-3.34;nan
8501;BME280;4288;48.484;10.024;2023-02-05T07:08:40;97340.38;;;-3.32;nan
8501;BME280;4288;48.484;10.024;2023-02-05T07:11:09;97347.66;;;-3.34;nan
8501;BME280;4288;48.484;10.024;2023-02-05T07:13:36;97348.75;;;-3.30;nan
8501;BME280;4288;48.484;10.024;2023-02-05T07:16:04;97346.97;;;-3.25;nan
8501;BME280;4288;48.484;10.024;2023-02-05T07:18:32;97349.59;;;-3.25;nan
8501;BME280;4288;48.484;10.024;2023-02-05T07:21:02;97351.09;;;-3.02;nan
8501;BME280;4288;48.484;10.024;2023-02-05T07:23:30;97354.78;;;-2.98;nan
8501;BME280;4288;48.484;10.024;2023-02-05T07:25:57;97362.06;;;-3.05;nan
8501;BME280;4288;48.484;10.024;2023-02-05T07:28:26;97366.75;;;-3.07;nan
8501;BME280;4288;48.484;10.024;2023-02-05T07:30:53;97361.47;;;-2.86;nan
8501;BME280;4288;48.484;10.024;2023-02-05T07:33:20;97367.59;;;-2.70;nan
8501;BME280;4288;48.484;10.024;2023-02-05T07:35:47;97367.00;;;-2.45;nan
8501;BME280;4288;48.484;10.024;2023-02-05T07:38:14;97370.19;;;-2.38;nan
8501;BME280;4288;48.484;10.024;2023-02-05T07:40:41;97375.50;;;-2.28;nan
8501;BME280;4288;48.484;10.024;2023-02-05T07:43:08;97364.84;;;-2.12;nan
8501;BME280;4288;48.484;10.024;2023-02-05T07:45:37;97357.00;;;-2.12;nan
8501;BME280;4288;48.484;10.024;2023-02-05T07:48:04;97364.38;;;-1.99;nan
8501;BME280;4288;48.484;10.024;2023-02-05T07:50:31;97370.50;;;-1.83;nan
8501;BME280;4288;48.484;10.024;2023-02-05T07:52:58;97365.34;;;-1.58;nan
8501;BME280;4288;48.484;10.024;2023-02-05T07:55:25;97357.34;;;-1.11;nan
8501;BME280;4288;48.484;10.024;2023-02-05T07:57:53;97372.34;;;-0.92;nan
8501;BME280;4288;48.484;10.024;2023-02-05T08:00:20;97359.75;;;-0.59;nan
8501;BME280;4288;48.484;10.024;2023-02-05T08:02:50;97362.13;;;-0.68;nan
8501;BME280;4288;48.484;10.024;2023-02-05T08:05:17;97357.66;;;-0.47;nan
8501;BME280;4288;48.484;10.024;2023-02-05T08:07:45;97344.00;;;-0.44;nan
8501;BME280;4288;48.484;10.024;2023-02-05T08:10:13;97338.47;;;-0.33;nan
8501;BME280;4288;48.484;10.024;2023-02-05T08:12:40;97332.94;;;-0.26;nan
8501;BME280;4288;48.484;10.024;2023-02-05T08:15:08;97323.50;;;-0.42;nan
8501;BME280;4288;48.484;10.024;2023-02-05T08:17:36;97320.56;;;-0.21;nan
8501;BME280;4288;48.484;10.024;2023-02-05T08:20:05;97315.81;;;-0.14;nan
8501;BME280;4288;48.484;10.024;2023-02-05T08:22:34;97307.72;;;-0.27;nan
8501;BME280;4288;48.484;10.024;2023-02-05T08:25:02;97308.78;;;-0.28;nan
8501;BME280;4288;48.484;10.024;2023-02-05T08:27:31;97315.31;;;-0.21;nan
8501;BME280;4288;48.484;10.024;2023-02-05T08:29:58;97314.50;;;-0.11;nan
8501;BME280;4288;48.484;10.024;2023-02-05T08:32:25;97316.94;;;-0.30;nan
8501;BME280;4288;48.484;10.024;2023-02-05T08:34:52;97316.91;;;-0.25;nan
8501;BME280;4288;48.484;10.024;2023-02-05T08:37:21;97316.38;;;-0.22;nan
8501;BME280;4288;48.484;10.024;2023-02-05T08:39:48;97322.91;;;-0.04;nan
8501;BME280;4288;48.484;10.024;2023-02-05T08:42:15;97331.34;;;-0.12;nan
8501;BME280;4288;48.484;10.024;2023-02-05T08:44:43;97322.13;;;-0.15;nan
8501;BME280;4288;48.484;10.024;2023-02-05T08:47:10;97322.91;;;-0.09;nan
8501;BME280;4288;48.484;10.024;2023-02-05T08:49:37;97332.63;;;-0.10;nan
8501;BME280;4288;48.484;10.024;2023-02-05T08:52:04;97324.22;;;-0.07;nan
8501;BME280;4288;48.484;10.024;2023-02-05T08:54:33;97321.06;;;-0.14;nan
8501;BME280;4288;48.484;10.024;2023-02-05T08:57:00;97316.06;;;0.00;nan
8501;BME280;4288;48.484;10.024;2023-02-05T08:59:27;97310.25;;;0.03;nan
8501;BME280;4288;48.484;10.024;2023-02-05T09:01:54;97312.56;;;0.20;nan
8501;BME280;4288;48.484;10.024;2023-02-05T09:04:21;97303.88;;;0.29;nan
8501;BME280;4288;48.484;10.024;2023-02-05T09:06:50;97302.50;;;0.37;nan
8501;BME280;4288;48.484;10.024;2023-02-05T09:09:18;97306.44;;;0.34;nan
8501;BME280;4288;48.484;10.024;2023-02-05T09:11:47;97297.56;;;0.25;nan
8501;BME280;4288;48.484;10.024;2023-02-05T09:14:14;97291.28;;;0.16;nan
8501;BME280;4288;48.484;10.024;2023-02-05T09:16:42;97286.56;;;0.13;nan
8501;BME280;4288;48.484;10.024;2023-02-05T09:19:09;97288.69;;;0.11;nan
8501;BME280;4288;48.484;10.024;2023-02-05T09:21:36;97282.63;;;0.11;nan
8501;BME280;4288;48.484;10.024;2023-02-05T09:24:03;97283.13;;;0.23;nan
8501;BME280;4288;48.484;10.024;2023-02-05T09:26:31;97280.81;;;0.06;nan
8501;BME280;4288;48.484;10.024;2023-02-05T09:28:59;97280.00;;;0.11;nan
8501;BME280;4288;48.484;10.024;2023-02-05T09:31:26;97270.75;;;0.23;nan
8501;BME280;4288;48.484;10.024;2023-02-05T09:33:54;97260.81;;;0.15;nan
8501;BME280;4288;48.484;10.024;2023-02-05T09:36:22;97261.22;;;0.32;nan
8501;BME280;4288;48.484;10.024;2023-02-05T09:38:49;97253.88;;;0.34;nan
8501;BME280;4288;48.484;10.024;2023-02-05T09:41:27;97243.56;;;0.43;nan
8501;BME280;4288;48.484;10.024;2023-02-05T09:44:02;97243.47;;;0.53;nan
8501;BME280;4288;48.484;10.024;2023-02-05T09:46:38;97248.16;;;0.66;nan
8501;BME280;4288;48.484;10.024;2023-02-05T09:49:15;97243.28;;;0.44;nan
8501;BME280;4288;48.484;10.024;2023-02-05T09:51:46;97248.97;;;0.61;nan
8501;BME280;4288;48.484;10.024;2023-02-05T09:54:18;97240.84;;;0.53;nan
8501;BME280;4288;48.484;10.024;2023-02-05T09:56:48;97246.06;;;0.63;nan
8501;BME280;4288;48.484;10.024;2023-02-05T09:59:20;97239.50;;;0.60;nan
8501;BME280;4288;48.484;10.024;2023-02-05T10:01:51;97237.06;;;0.69;nan
8501;BME280;4288;48.484;10.024;2023-02-05T10:04:20;97232.88;;;0.68;nan
8501;BME280;4288;48.484;10.024;2023-02-05T10:07:24;97235.91;;;0.85;nan
8501;BME280;4288;48.484;10.024;2023-02-05T10:10:22;97224.44;;;1.00;nan
8501;BME280;4288;48.484;10.024;2023-02-05T10:13:26;97224.84;;;0.83;nan
8501;BME280;4288;48.484;10.024;2023-02-05T10:16:15;97218.34;;;1.04;nan
8501;BME280;4288;48.484;10.024;2023-02-05T10:19:02;97228.94;;;1.28;nan
8501;BME280;4288;48.484;10.024;2023-02-05T10:21:57;97217.06;;;1.30;nan
8501;BME280;4288;48.484;10.024;2023-02-05T10:24:42;97215.88;;;1.18;nan
8501;BME280;4288;48.484;10.024;2023-02-05T10:27:19;97218.94;;;1.01;nan
8501;BME280;4288;48.484;10.024;2023-02-05T10:29:56;97210.59;;;0.89;nan
8501;BME280;4288;48.484;10.024;2023-02-05T10:32:35;97213.66;;;1.01;nan
8501;BME280;4288;48.484;10.024;2023-02-05T10:35:21;97202.84;;;1.03;nan
8501;BME280;4288;48.484;10.024;2023-02-05T10:37:52;97196.56;;;0.99;nan
8501;BME280;4288;48.484;10.024;2023-02-05T10:40:23;97186.34;;;0.92;nan
8501;BME280;4288;48.484;10.024;2023-02-05T10:42:56;97182.44;;;0.89;nan
8501;BME280;4288;48.484;10.024;2023-02-05T10:45:29;97181.97;;;1.11;nan
8501;BME280;4288;48.484;10.024;2023-02-05T10:48:11;97172.78;;;1.09;nan
8501;BME280;4288;48.484;10.024;2023-02-05T10:50:52;97172.94;;;1.17;nan
8501;BME280;4288;48.484;10.024;2023-02-05T10:53:23;97167.16;;;1.15;nan
8501;BME280;4288;48.484;10.024;2023-02-05T10:55:50;97162.84;;;1.01;nan
8501;BME280;4288;48.484;10.024;2023-02-05T10:58:42;97171.72;;;1.10;nan
8501;BME280;4288;48.484;10.024;2023-02-05T11:01:15;97162.75;;;1.11;nan
8501;BME280;4288;48.484;10.024;2023-02-05T11:03:54;97162.91;;;1.19;nan
8501;BME280;4288;48.484;10.024;2023-02-05T11:06:26;97158.94;;;1.22;nan
8501;BME280;4288;48.484;10.024;2023-02-05T11:08:54;97158.28;;;1.35;nan
8501;BME280;4288;48.484;10.024;2023-02-05T11:11:24;97159.28;;;1.39;nan
8501;BME280;4288;48.484;10.024;2023-02-05T11:13:56;97159.19;;;1.49;nan
8501;BME280;4288;48.484;10.024;2023-02-05T11:16:34;97163.94;;;1.47;nan
8501;BME280;4288;48.484;10.024;2023-02-05T11:19:17;97155.31;;;1.41;nan
8501;BME280;4288;48.484;10.024;2023-02-05T11:21:50;97150.63;;;1.38;nan
8501;BME280;4288;48.484;10.024;2023-02-05T11:24:30;97140.31;;;1.42;nan
8501;BME280;4288;48.484;10.024;2023-02-05T11:27:29;97143.03;;;1.32;nan
8501;BME280;4288;48.484;10.024;2023-02-05T11:29:58;97142.97;;;1.37;nan
8501;BME280;4288;48.484;10.024;2023-02-05T11:32:42;97130.38;;;1.34;nan
8501;BME280;4288;48.484;10.024;2023-02-05T11:35:20;97134.56;;;1.35;nan
8501;BME280;4288;48.484;10.024;2023-02-05T11:37:54;97129.47;;;1.20;nan
8501;BME280;4288;48.484;10.024;2023-02-05T11:40:25;97128.94;;;1.23;nan
8501;BME280;4288;48.484;10.024;2023-02-05T11:43:07;97131.72;;;1.31;nan
8501;BME280;4288;48.484;10.024;2023-02-05T11:45:48;97123.81;;;1.31;nan
8501;BME280;4288;48.484;10.024;2023-02-05T11:48:31;97132.59;;;1.27;nan
8501;BME280;4288;48.484;10.024;2023-02-05T11:51:01;97124.78;;;1.17;nan
8501;BME280;4288;48.484;10.024;2023-02-05T11:53:30;97124.44;;;1.23;nan
8501;BME280;4288;48.484;10.024;2023-02-05T11:56:01;97119.16;;;1.23;nan
8501;BME280;4288;48.484;10.024;2023-02-05T11:58:31;97120.34;;;1.12;nan
8501;BME280;4288;48.484;10.024;2023-02-05T12:01:03;97115.53;;;1.19;nan
8501;BME280;4288;48.484;10.024;2023-02-05T12:03:33;97119.75;;;1.20;nan
8501;BME280;4288;48.484;10.024;2023-02-05T12:06:12;97121.91;;;1.13;nan
8501;BME280;4288;48.484;10.024;2023-02-05T12:08:47;97116.94;;;1.12;nan
8501;BME280;4288;48.484;10.024;2023-02-05T12:11:47;97119.28;;;1.13;nan
8501;BME280;4288;48.484;10.024;2023-02-05T12:14:43;97103.72;;;1.17;nan
8501;BME280;4288;48.484;10.024;2023-02-05T12:17:33;97108.75;;;1.13;nan
8501;BME280;4288;48.484;10.024;2023-02-05T12:20:19;97100.47;;;1.25;nan
8501;BME280;4288;48.484;10.024;2023-02-05T12:23:26;97081.75;;;1.26;nan
8501;BME280;4288;48.484;10.024;2023-02-05T12:26:25;97081.56;;;1.41;nan
8501;BME280;4288;48.484;10.024;2023-02-05T12:29:07;97078.00;;;1.32;nan
8501;BME280;4288;48.484;10.024;2023-02-05T12:31:54;97081.13;;;1.34;nan
8501;BME280;4288;48.484;10.024;2023-02-05T12:34:29;97073.00;;;1.31;nan
8501;BME280;4288;48.484;10.024;2023-02-05T12:37:27;97068.72;;;1.35;nan
8501;BME280;4288;48.484;10.024;2023-02-05T12:40:14;97064.53;;;1.34;nan
8501;BME280;4288;48.484;10.024;2023-02-05T12:42:50;97061.28;;;1.42;nan
8501;BME280;4288;48.484;10.024;2023-02-05T12:45:38;97059.19;;;1.39;nan
8501;BME280;4288;48.484;10.024;2023-02-05T12:48:36;97055.84;;;1.33;nan
8501;BME280;4288;48.484;10.024;2023-02-05T12:51:25;97050.28;;;1.35;nan
8501;BME280;4288;48.484;10.024;2023-02-05T12:54:10;97042.63;;;1.38;nan
8501;BME280;4288;48.484;10.024;2023-02-05T12:56:56;97041.13;;;1.32;nan
8501;BME280;4288;48.484;10.024;2023-02-05T12:59:34;97046.59;;;1.36;nan
8501;BME280;4288;48.484;10.024;2023-02-05T13:02:18;97053.50;;;1.32;nan
8501;BME280;4288;48.484;10.024;2023-02-05T13:04:55;97048.97;;;1.14;nan
8501;BME280;4288;48.484;10.024;2023-02-05T13:07:31;97054.25;;;1.14;nan
8501;BME280;4288;48.484;10.024;2023-02-05T13:10:03;97049.28;;;1.12;nan
8501;BME280;4288;48.484;10.024;2023-02-05T13:12:36;97044.16;;;1.21;nan
8501;BME280;4288;48.484;10.024;2023-02-05T13:15:14;97041.94;;;1.09;nan
8501;BME280;4288;48.484;10.024;2023-02-05T13:17:53;97038.53;;;1.09;nan
8501;BME280;4288;48.484;10.024;2023-02-05T13:20:25;97024.56;;;1.08;nan
8501;BME280;4288;48.484;10.024;2023-02-05T13:23:21;97016.06;;;1.16;nan
8501;BME280;4288;48.484;10.024;2023-02-05T13:26:06;97012.34;;;1.17;nan
8501;BME280;4288;48.484;10.024;2023-02-05T13:28:58;97008.38;;;1.20;nan
8501;BME280;4288;48.484;10.024;2023-02-05T13:31:31;97006.72;;;1.24;nan
8501;BME280;4288;48.484;10.024;2023-02-05T13:34:04;97005.91;;;1.28;nan
8501;BME280;4288;48.484;10.024;2023-02-05T13:37:18;97001.69;;;1.27;nan
8501;BME280;4288;48.484;10.024;2023-02-05T13:40:44;96986.31;;;1.34;nan
8501;BME280;4288;48.484;10.024;2023-02-05T13:44:03;96991.59;;;1.34;nan
8501;BME280;4288;48.484;10.024;2023-02-05T13:53:27;96986.31;;;1.34;nan
8501;BME280;4288;48.484;10.024;2023-02-05T13:56:31;96995.72;;;1.40;nan
8501;BME280;4288;48.484;10.024;2023-02-05T13:59:04;96994.09;;;1.44;nan
8501;BME280;4288;48.484;10.024;2023-02-05T14:01:40;96993.50;;;1.47;nan
8501;BME280;4288;48.484;10.024;2023-02-05T14:04:19;96997.13;;;1.51;nan
8501;BME280;4288;48.484;10.024;2023-02-05T14:06:56;96994.50;;;1.51;nan
8501;BME280;4288;48.484;10.024;2023-02-05T14:09:33;96989.72;;;1.53;nan
8501;BME280;4288;48.484;10.024;2023-02-05T14:12:04;96981.63;;;1.50;nan
8501;BME280;4288;48.484;10.024;2023-02-05T14:14:34;96982.97;;;1.47;nan
8501;BME280;4288;48.484;10.024;2023-02-05T14:17:50;96981.25;;;1.56;nan
8501;BME280;4288;48.484;10.024;2023-02-05T14:20:40;96987.03;;;1.40;nan